sensor_id;sensor_type;location;lat;lon;timestamp;P1;durP1;ratioP1;P2;durP2;ratioP2
72261;SDS011;60173;52.112;8.648;2023-01-05T00:00:53;34.40;;;5.70;;
72261;SDS011;60173;52.112;8.648;2023-01-05T00:03:20;25.00;;;5.10;;
72261;SDS011;60173;52.112;8.648;2023-01-05T00:05:47;28.38;;;5.18;;
72261;SDS011;60173;52.112;8.648;2023-01-05T00:08:13;29.42;;;4.90;;
72261;SDS011;60173;52.112;8.648;2023-01-05T00:10:40;29.42;;;5.82;;
72261;SDS011;60173;52.112;8.648;2023-01-05T00:13:07;32.05;;;4.97;;
72261;SDS011;60173;52.112;8.648;2023-01-05T00:15:33;36.35;;;5.38;;
72261;SDS011;60173;52.112;8.648;2023-01-05T00:18:01;30.17;;;5.70;;
72261;SDS011;60173;52.112;8.648;2023-01-05T00:20:27;26.98;;;5.32;;
72261;SDS011;60173;52.112;8.648;2023-01-05T00:22:54;36.20;;;4.95;;
72261;SDS011;60173;52.112;8.648;2023-01-05T00:25:21;31.27;;;5.57;;
72261;SDS011;60173;52.112;8.648;2023-01-05T00:27:48;27.52;;;5.95;;
72261;SDS011;60173;52.112;8.648;2023-01-05T00:30:16;42.00;;;6.20;;
72261;SDS011;60173;52.112;8.648;2023-01-05T00:32:45;38.53;;;6.13;;
72261;SDS011;60173;52.112;8.648;2023-01-05T00:35:12;36.08;;;5.82;;
72261;SDS011;60173;52.112;8.648;2023-01-05T00:37:40;31.02;;;5.38;;
72261;SDS011;60173;52.112;8.648;2023-01-05T00:40:11;32.28;;;5.25;;
72261;SDS011;60173;52.112;8.648;2023-01-05T00:42:40;30.55;;;6.13;;
72261;SDS011;60173;52.112;8.648;2023-01-05T00:45:07;33.75;;;5.65;;
72261;SDS011;60173;52.112;8.648;2023-01-05T00:47:36;34.42;;;6.15;;
72261;SDS011;60173;52.112;8.648;2023-01-05T00:50:02;25.65;;;5.13;;
72261;SDS011;60173;52.112;8.648;2023-01-05T00:52:30;32.90;;;5.90;;
72261;SDS011;60173;52.112;8.648;2023-01-05T00:54:56;28.38;;;4.97;;
72261;SDS011;60173;52.112;8.648;2023-01-05T00:57:22;32.92;;;5.40;;
72261;SDS011;60173;52.112;8.648;2023-01-05T00:59:49;24.55;;;4.82;;
72261;SDS011;60173;52.112;8.648;2023-01-05T01:02:15;26.48;;;4.63;;
72261;SDS011;60173;52.112;8.648;2023-01-05T01:04:41;29.92;;;5.32;;
72261;SDS011;60173;52.112;8.648;2023-01-05T01:07:08;26.77;;;5.50;;
72261;SDS011;60173;52.112;8.648;2023-01-05T01:09:34;28.98;;;4.57;;
72261;SDS011;60173;52.112;8.648;2023-01-05T01:12:01;33.95;;;5.40;;
72261;SDS011;60173;52.112;8.648;2023-01-05T01:14:28;31.42;;;5.10;;
72261;SDS011;60173;52.112;8.648;2023-01-05T01:16:54;23.48;;;4.47;;
72261;SDS011;60173;52.112;8.648;2023-01-05T01:19:21;27.35;;;4.50;;
72261;SDS011;60173;52.112;8.648;2023-01-05T01:21:49;25.30;;;4.13;;
72261;SDS011;60173;52.112;8.648;2023-01-05T01:24:17;19.00;;;4.65;;
72261;SDS011;60173;52.112;8.648;2023-01-05T01:26:45;27.27;;;4.60;;
72261;SDS011;60173;52.112;8.648;2023-01-05T01:29:12;24.70;;;4.05;;
72261;SDS011;60173;52.112;8.648;2023-01-05T01:31:39;27.75;;;4.43;;
72261;SDS011;60173;52.112;8.648;2023-01-05T01:34:05;21.65;;;3.95;;
72261;SDS011;60173;52.112;8.648;2023-01-05T01:36:31;30.27;;;4.25;;
72261;SDS011;60173;52.112;8.648;2023-01-05T01:38:58;28.65;;;4.43;;
72261;SDS011;60173;52.112;8.648;2023-01-05T01:41:25;30.27;;;4.10;;
72261;SDS011;60173;52.112;8.648;2023-01-05T01:43:53;30.13;;;4.88;;
72261;SDS011;60173;52.112;8.648;2023-01-05T01:46:21;26.42;;;4.72;;
72261;SDS011;60173;52.112;8.648;2023-01-05T01:48:53;26.88;;;4.75;;
72261;SDS011;60173;52.112;8.648;2023-01-05T01:51:27;31.48;;;5.38;;
72261;SDS011;60173;52.112;8.648;2023-01-05T01:53:58;34.60;;;4.85;;
72261;SDS011;60173;52.112;8.648;2023-01-05T01:56:29;30.25;;;4.72;;
72261;SDS011;60173;52.112;8.648;2023-01-05T01:59:00;27.35;;;4.93;;
72261;SDS011;60173;52.112;8.648;2023-01-05T02:01:27;28.85;;;5.10;;
72261;SDS011;60173;52.112;8.648;2023-01-05T02:03:54;24.77;;;4.30;;
72261;SDS011;60173;52.112;8.648;2023-01-05T02:06:21;32.58;;;5.47;;
72261;SDS011;60173;52.112;8.648;2023-01-05T02:08:48;27.30;;;4.88;;
72261;SDS011;60173;52.112;8.648;2023-01-05T02:14:11;29.85;;;4.88;;
72261;SDS011;60173;52.112;8.648;2023-01-05T02:16:47;26.52;;;4.60;;
72261;SDS011;60173;52.112;8.648;2023-01-05T02:19:37;34.72;;;5.22;;
72261;SDS011;60173;52.112;8.648;2023-01-05T02:22:35;26.80;;;5.22;;
72261;SDS011;60173;52.112;8.648;2023-01-05T02:33:39;39.25;;;6.28;;
72261;SDS011;60173;52.112;8.648;2023-01-05T02:36:55;31.88;;;5.97;;
72261;SDS011;60173;52.112;8.648;2023-01-05T02:39:32;35.40;;;5.97;;
72261;SDS011;60173;52.112;8.648;2023-01-05T02:42:10;28.35;;;5.55;;
72261;SDS011;60173;52.112;8.648;2023-01-05T02:44:40;32.33;;;5.30;;
72261;SDS011;60173;52.112;8.648;2023-01-05T02:49:51;33.50;;;4.57;;
72261;SDS011;60173;52.112;8.648;2023-01-05T02:52:20;25.00;;;4.82;;
72261;SDS011;60173;52.112;8.648;2023-01-05T02:54:48;22.10;;;4.75;;
72261;SDS011;60173;52.112;8.648;2023-01-05T02:57:25;24.73;;;5.22;;
72261;SDS011;60173;52.112;8.648;2023-01-05T02:59:57;26.75;;;5.15;;
72261;SDS011;60173;52.112;8.648;2023-01-05T03:02:24;33.67;;;5.40;;
72261;SDS011;60173;52.112;8.648;2023-01-05T03:04:57;31.85;;;5.13;;
72261;SDS011;60173;52.112;8.648;2023-01-05T03:07:32;29.92;;;5.28;;
72261;SDS011;60173;52.112;8.648;2023-01-05T03:10:02;37.35;;;5.75;;
72261;SDS011;60173;52.112;8.648;2023-01-05T03:12:33;28.40;;;5.47;;
72261;SDS011;60173;52.112;8.648;2023-01-05T03:15:02;30.17;;;5.28;;
72261;SDS011;60173;52.112;8.648;2023-01-05T03:17:35;31.33;;;6.30;;
72261;SDS011;60173;52.112;8.648;2023-01-05T03:20:06;34.83;;;5.97;;
72261;SDS011;60173;52.112;8.648;2023-01-05T03:22:34;31.73;;;5.72;;
72261;SDS011;60173;52.112;8.648;2023-01-05T03:25:02;27.73;;;5.18;;
72261;SDS011;60173;52.112;8.648;2023-01-05T03:27:31;26.17;;;5.82;;
72261;SDS011;60173;52.112;8.648;2023-01-05T03:29:58;39.67;;;6.40;;
72261;SDS011;60173;52.112;8.648;2023-01-05T03:32:24;28.63;;;5.38;;
72261;SDS011;60173;52.112;8.648;2023-01-05T03:35:10;27.73;;;5.15;;
72261;SDS011;60173;52.112;8.648;2023-01-05T03:37:42;33.65;;;5.47;;
72261;SDS011;60173;52.112;8.648;2023-01-05T03:40:24;32.88;;;6.07;;
72261;SDS011;60173;52.112;8.648;2023-01-05T03:42:53;34.63;;;6.57;;
72261;SDS011;60173;52.112;8.648;2023-01-05T03:45:20;29.10;;;5.03;;
72261;SDS011;60173;52.112;8.648;2023-01-05T03:47:48;31.75;;;5.25;;
72261;SDS011;60173;52.112;8.648;2023-01-05T03:50:15;35.38;;;6.15;;
72261;SDS011;60173;52.112;8.648;2023-01-05T03:52:41;36.58;;;6.15;;
72261;SDS011;60173;52.112;8.648;2023-01-05T03:55:08;29.70;;;5.78;;
72261;SDS011;60173;52.112;8.648;2023-01-05T03:57:35;32.40;;;5.35;;
72261;SDS011;60173;52.112;8.648;2023-01-05T04:00:02;33.00;;;5.80;;
72261;SDS011;60173;52.112;8.648;2023-01-05T04:02:30;40.53;;;6.15;;
72261;SDS011;60173;52.112;8.648;2023-01-05T04:04:56;28.33;;;5.75;;
72261;SDS011;60173;52.112;8.648;2023-01-05T04:07:23;30.60;;;5.28;;
72261;SDS011;60173;52.112;8.648;2023-01-05T04:09:49;32.80;;;5.70;;
72261;SDS011;60173;52.112;8.648;2023-01-05T04:12:15;29.55;;;5.63;;
72261;SDS011;60173;52.112;8.648;2023-01-05T04:14:42;30.60;;;5.90;;
72261;SDS011;60173;52.112;8.648;2023-01-05T04:17:08;29.70;;;4.70;;
72261;SDS011;60173;52.112;8.648;2023-01-05T04:19:34;37.25;;;6.05;;
72261;SDS011;60173;52.112;8.648;2023-01-05T04:22:01;28.20;;;4.95;;
72261;SDS011;60173;52.112;8.648;2023-01-05T04:24:27;37.05;;;5.78;;
72261;SDS011;60173;52.112;8.648;2023-01-05T04:26:53;35.20;;;5.68;;
72261;SDS011;60173;52.112;8.648;2023-01-05T04:29:19;36.35;;;6.60;;
72261;SDS011;60173;52.112;8.648;2023-01-05T04:31:46;33.03;;;5.68;;
72261;SDS011;60173;52.112;8.648;2023-01-05T04:34:12;31.23;;;5.75;;
72261;SDS011;60173;52.112;8.648;2023-01-05T04:36:39;33.20;;;5.80;;
72261;SDS011;60173;52.112;8.648;2023-01-05T04:39:05;29.25;;;6.07;;
72261;SDS011;60173;52.112;8.648;2023-01-05T04:41:31;35.78;;;5.78;;
72261;SDS011;60173;52.112;8.648;2023-01-05T04:43:58;30.25;;;5.25;;
72261;SDS011;60173;52.112;8.648;2023-01-05T04:46:24;35.05;;;5.45;;
72261;SDS011;60173;52.112;8.648;2023-01-05T04:48:50;31.23;;;6.07;;
72261;SDS011;60173;52.112;8.648;2023-01-05T04:51:17;35.17;;;5.70;;
72261;SDS011;60173;52.112;8.648;2023-01-05T04:53:43;34.92;;;5.30;;
72261;SDS011;60173;52.112;8.648;2023-01-05T04:56:09;30.55;;;5.35;;
72261;SDS011;60173;52.112;8.648;2023-01-05T04:58:36;34.22;;;5.88;;
72261;SDS011;60173;52.112;8.648;2023-01-05T05:01:02;32.65;;;4.88;;
72261;SDS011;60173;52.112;8.648;2023-01-05T05:03:29;29.40;;;6.30;;
72261;SDS011;60173;52.112;8.648;2023-01-05T05:05:58;31.30;;;5.55;;
72261;SDS011;60173;52.112;8.648;2023-01-05T05:08:25;31.73;;;5.97;;
72261;SDS011;60173;52.112;8.648;2023-01-05T05:10:51;38.10;;;5.80;;
72261;SDS011;60173;52.112;8.648;2023-01-05T05:13:17;31.65;;;5.55;;
72261;SDS011;60173;52.112;8.648;2023-01-05T05:15:44;41.00;;;5.55;;
72261;SDS011;60173;52.112;8.648;2023-01-05T05:18:10;38.70;;;6.55;;
72261;SDS011;60173;52.112;8.648;2023-01-05T05:20:37;30.83;;;5.63;;
72261;SDS011;60173;52.112;8.648;2023-01-05T05:23:07;34.88;;;5.97;;
72261;SDS011;60173;52.112;8.648;2023-01-05T05:25:33;42.97;;;6.38;;
72261;SDS011;60173;52.112;8.648;2023-01-05T05:28:00;32.08;;;5.13;;
72261;SDS011;60173;52.112;8.648;2023-01-05T05:30:26;33.03;;;5.18;;
72261;SDS011;60173;52.112;8.648;2023-01-05T05:32:53;36.80;;;5.22;;
72261;SDS011;60173;52.112;8.648;2023-01-05T05:35:19;29.08;;;5.32;;
72261;SDS011;60173;52.112;8.648;2023-01-05T05:37:45;31.60;;;5.68;;
72261;SDS011;60173;52.112;8.648;2023-01-05T05:40:19;32.63;;;5.78;;
72261;SDS011;60173;52.112;8.648;2023-01-05T05:42:45;44.15;;;7.20;;
72261;SDS011;60173;52.112;8.648;2023-01-05T05:45:12;30.23;;;5.20;;
72261;SDS011;60173;52.112;8.648;2023-01-05T05:47:38;32.85;;;5.85;;
72261;SDS011;60173;52.112;8.648;2023-01-05T05:50:04;34.10;;;5.95;;
72261;SDS011;60173;52.112;8.648;2023-01-05T05:52:31;38.10;;;6.55;;
72261;SDS011;60173;52.112;8.648;2023-01-05T05:54:58;34.17;;;5.88;;
72261;SDS011;60173;52.112;8.648;2023-01-05T05:57:24;44.47;;;6.85;;
72261;SDS011;60173;52.112;8.648;2023-01-05T05:59:50;40.38;;;6.70;;
72261;SDS011;60173;52.112;8.648;2023-01-05T06:02:17;29.52;;;5.80;;
72261;SDS011;60173;52.112;8.648;2023-01-05T06:04:44;31.77;;;5.97;;
72261;SDS011;60173;52.112;8.648;2023-01-05T06:07:10;39.20;;;6.35;;
72261;SDS011;60173;52.112;8.648;2023-01-05T06:09:37;46.58;;;6.80;;
72261;SDS011;60173;52.112;8.648;2023-01-05T06:12:03;37.97;;;6.00;;
72261;SDS011;60173;52.112;8.648;2023-01-05T06:14:30;46.95;;;7.13;;
72261;SDS011;60173;52.112;8.648;2023-01-05T06:16:57;31.25;;;6.05;;
72261;SDS011;60173;52.112;8.648;2023-01-05T06:19:23;34.58;;;6.15;;
72261;SDS011;60173;52.112;8.648;2023-01-05T06:21:49;30.08;;;5.57;;
72261;SDS011;60173;52.112;8.648;2023-01-05T06:24:15;34.47;;;5.72;;
72261;SDS011;60173;52.112;8.648;2023-01-05T06:26:42;23.92;;;4.85;;
72261;SDS011;60173;52.112;8.648;2023-01-05T06:29:08;28.55;;;5.80;;
72261;SDS011;60173;52.112;8.648;2023-01-05T06:31:34;34.58;;;5.68;;
72261;SDS011;60173;52.112;8.648;2023-01-05T06:34:01;30.83;;;5.40;;
72261;SDS011;60173;52.112;8.648;2023-01-05T06:36:27;32.63;;;5.93;;
72261;SDS011;60173;52.112;8.648;2023-01-05T06:38:54;40.72;;;7.00;;
72261;SDS011;60173;52.112;8.648;2023-01-05T06:41:20;33.92;;;5.75;;
72261;SDS011;60173;52.112;8.648;2023-01-05T06:43:47;36.97;;;6.93;;
72261;SDS011;60173;52.112;8.648;2023-01-05T06:46:13;21.35;;;5.15;;
72261;SDS011;60173;52.112;8.648;2023-01-05T06:48:39;30.88;;;5.85;;
72261;SDS011;60173;52.112;8.648;2023-01-05T06:51:06;35.72;;;6.20;;
72261;SDS011;60173;52.112;8.648;2023-01-05T06:53:32;27.25;;;5.00;;
72261;SDS011;60173;52.112;8.648;2023-01-05T06:55:58;23.00;;;5.07;;
72261;SDS011;60173;52.112;8.648;2023-01-05T06:58:25;27.60;;;5.32;;
72261;SDS011;60173;52.112;8.648;2023-01-05T07:00:52;37.28;;;6.30;;
72261;SDS011;60173;52.112;8.648;2023-01-05T07:03:19;27.38;;;5.18;;
72261;SDS011;60173;52.112;8.648;2023-01-05T07:05:45;28.90;;;4.78;;
72261;SDS011;60173;52.112;8.648;2023-01-05T07:08:11;23.55;;;4.78;;
72261;SDS011;60173;52.112;8.648;2023-01-05T07:10:38;28.63;;;4.97;;
72261;SDS011;60173;52.112;8.648;2023-01-05T07:13:04;29.77;;;5.55;;
72261;SDS011;60173;52.112;8.648;2023-01-05T07:15:30;29.88;;;4.70;;
72261;SDS011;60173;52.112;8.648;2023-01-05T07:17:57;33.60;;;4.90;;
72261;SDS011;60173;52.112;8.648;2023-01-05T07:20:23;20.50;;;4.35;;
72261;SDS011;60173;52.112;8.648;2023-01-05T07:22:49;28.48;;;5.15;;
72261;SDS011;60173;52.112;8.648;2023-01-05T07:25:16;27.33;;;5.43;;
72261;SDS011;60173;52.112;8.648;2023-01-05T07:27:42;31.33;;;4.85;;
72261;SDS011;60173;52.112;8.648;2023-01-05T07:30:09;28.95;;;4.97;;
72261;SDS011;60173;52.112;8.648;2023-01-05T07:32:35;27.13;;;5.45;;
72261;SDS011;60173;52.112;8.648;2023-01-05T07:35:02;26.40;;;5.72;;
72261;SDS011;60173;52.112;8.648;2023-01-05T07:37:29;33.97;;;6.25;;
72261;SDS011;60173;52.112;8.648;2023-01-05T07:39:55;26.98;;;4.97;;
72261;SDS011;60173;52.112;8.648;2023-01-05T07:42:21;35.80;;;6.60;;
72261;SDS011;60173;52.112;8.648;2023-01-05T07:44:48;34.70;;;5.60;;
72261;SDS011;60173;52.112;8.648;2023-01-05T07:47:14;31.27;;;5.57;;
72261;SDS011;60173;52.112;8.648;2023-01-05T07:49:40;27.75;;;4.97;;
72261;SDS011;60173;52.112;8.648;2023-01-05T07:52:07;27.60;;;5.43;;
72261;SDS011;60173;52.112;8.648;2023-01-05T07:54:33;26.85;;;5.25;;
72261;SDS011;60173;52.112;8.648;2023-01-05T07:56:59;28.35;;;5.05;;
72261;SDS011;60173;52.112;8.648;2023-01-05T07:59:26;27.70;;;5.65;;
72261;SDS011;60173;52.112;8.648;2023-01-05T08:01:52;25.70;;;6.18;;
72261;SDS011;60173;52.112;8.648;2023-01-05T08:04:19;27.38;;;5.70;;
72261;SDS011;60173;52.112;8.648;2023-01-05T08:06:45;27.65;;;5.28;;
72261;SDS011;60173;52.112;8.648;2023-01-05T08:09:12;29.30;;;4.60;;
72261;SDS011;60173;52.112;8.648;2023-01-05T08:11:38;22.45;;;4.82;;
72261;SDS011;60173;52.112;8.648;2023-01-05T08:14:04;21.80;;;4.63;;
72261;SDS011;60173;52.112;8.648;2023-01-05T08:16:31;20.05;;;4.32;;
72261;SDS011;60173;52.112;8.648;2023-01-05T08:18:58;22.65;;;4.20;;
72261;SDS011;60173;52.112;8.648;2023-01-05T08:21:25;24.45;;;4.38;;
72261;SDS011;60173;52.112;8.648;2023-01-05T08:23:51;26.40;;;4.88;;
72261;SDS011;60173;52.112;8.648;2023-01-05T08:26:18;26.42;;;4.85;;
72261;SDS011;60173;52.112;8.648;2023-01-05T08:28:46;17.38;;;4.00;;
72261;SDS011;60173;52.112;8.648;2023-01-05T08:31:14;21.15;;;4.68;;
72261;SDS011;60173;52.112;8.648;2023-01-05T08:33:55;21.80;;;4.47;;
72261;SDS011;60173;52.112;8.648;2023-01-05T08:36:22;23.23;;;4.65;;
72261;SDS011;60173;52.112;8.648;2023-01-05T08:38:52;22.17;;;5.07;;
72261;SDS011;60173;52.112;8.648;2023-01-05T08:43:51;21.05;;;4.90;;
72261;SDS011;60173;52.112;8.648;2023-01-05T08:46:19;20.05;;;4.85;;
72261;SDS011;60173;52.112;8.648;2023-01-05T08:48:47;27.42;;;4.70;;
72261;SDS011;60173;52.112;8.648;2023-01-05T08:51:15;26.52;;;5.00;;
72261;SDS011;60173;52.112;8.648;2023-01-05T08:53:41;25.15;;;4.65;;
72261;SDS011;60173;52.112;8.648;2023-01-05T08:56:08;24.33;;;4.68;;
72261;SDS011;60173;52.112;8.648;2023-01-05T08:58:38;30.63;;;5.60;;
72261;SDS011;60173;52.112;8.648;2023-01-05T09:01:06;25.70;;;4.63;;
72261;SDS011;60173;52.112;8.648;2023-01-05T09:03:33;24.98;;;4.90;;
72261;SDS011;60173;52.112;8.648;2023-01-05T09:06:00;32.47;;;6.05;;
72261;SDS011;60173;52.112;8.648;2023-01-05T09:08:27;23.58;;;5.00;;
72261;SDS011;60173;52.112;8.648;2023-01-05T09:10:54;27.77;;;5.53;;
72261;SDS011;60173;52.112;8.648;2023-01-05T09:13:21;28.15;;;5.47;;
72261;SDS011;60173;52.112;8.648;2023-01-05T09:15:47;26.20;;;5.75;;
72261;SDS011;60173;52.112;8.648;2023-01-05T09:18:14;21.33;;;4.65;;
72261;SDS011;60173;52.112;8.648;2023-01-05T09:20:40;26.05;;;4.82;;
72261;SDS011;60173;52.112;8.648;2023-01-05T09:23:06;23.42;;;5.38;;
72261;SDS011;60173;52.112;8.648;2023-01-05T09:25:33;26.00;;;5.60;;
72261;SDS011;60173;52.112;8.648;2023-01-05T09:27:59;27.48;;;5.05;;
72261;SDS011;60173;52.112;8.648;2023-01-05T09:30:25;25.45;;;4.53;;
72261;SDS011;60173;52.112;8.648;2023-01-05T09:32:52;26.05;;;4.95;;
72261;SDS011;60173;52.112;8.648;2023-01-05T09:35:18;27.73;;;5.45;;
72261;SDS011;60173;52.112;8.648;2023-01-05T09:37:44;25.85;;;5.22;;
72261;SDS011;60173;52.112;8.648;2023-01-05T09:40:11;29.17;;;5.57;;
72261;SDS011;60173;52.112;8.648;2023-01-05T09:42:38;29.60;;;5.15;;
72261;SDS011;60173;52.112;8.648;2023-01-05T09:45:09;25.35;;;4.97;;
72261;SDS011;60173;52.112;8.648;2023-01-05T09:47:37;27.60;;;5.05;;
72261;SDS011;60173;52.112;8.648;2023-01-05T09:50:07;22.05;;;4.32;;
72261;SDS011;60173;52.112;8.648;2023-01-05T09:52:43;29.55;;;5.30;;
72261;SDS011;60173;52.112;8.648;2023-01-05T09:55:16;33.42;;;5.20;;
72261;SDS011;60173;52.112;8.648;2023-01-05T09:57:50;32.33;;;5.60;;
72261;SDS011;60173;52.112;8.648;2023-01-05T10:00:19;23.40;;;4.80;;
72261;SDS011;60173;52.112;8.648;2023-01-05T10:02:49;27.98;;;4.78;;
72261;SDS011;60173;52.112;8.648;2023-01-05T10:05:18;26.25;;;4.50;;
72261;SDS011;60173;52.112;8.648;2023-01-05T10:08:00;23.65;;;4.70;;
72261;SDS011;60173;52.112;8.648;2023-01-05T10:13:18;17.88;;;4.43;;
72261;SDS011;60173;52.112;8.648;2023-01-05T10:15:49;23.63;;;4.22;;
72261;SDS011;60173;52.112;8.648;2023-01-05T10:18:28;20.95;;;4.65;;
72261;SDS011;60173;52.112;8.648;2023-01-05T10:21:08;21.35;;;4.45;;
72261;SDS011;60173;52.112;8.648;2023-01-05T10:24:01;16.52;;;4.38;;
72261;SDS011;60173;52.112;8.648;2023-01-05T10:26:56;24.17;;;4.18;;
72261;SDS011;60173;52.112;8.648;2023-01-05T10:30:04;17.38;;;3.53;;
72261;SDS011;60173;52.112;8.648;2023-01-05T10:35:34;15.75;;;3.85;;
72261;SDS011;60173;52.112;8.648;2023-01-05T10:41:14;21.77;;;4.38;;
72261;SDS011;60173;52.112;8.648;2023-01-05T10:43:58;20.38;;;3.85;;
72261;SDS011;60173;52.112;8.648;2023-01-05T10:46:33;27.33;;;4.40;;
72261;SDS011;60173;52.112;8.648;2023-01-05T10:49:15;24.58;;;4.80;;
72261;SDS011;60173;52.112;8.648;2023-01-05T10:51:45;19.83;;;4.65;;
72261;SDS011;60173;52.112;8.648;2023-01-05T10:54:38;24.33;;;4.47;;
72261;SDS011;60173;52.112;8.648;2023-01-05T11:03:04;25.52;;;4.88;;
72261;SDS011;60173;52.112;8.648;2023-01-05T11:05:28;20.30;;;4.40;;
72261;SDS011;60173;52.112;8.648;2023-01-05T11:08:00;25.80;;;5.07;;
72261;SDS011;60173;52.112;8.648;2023-01-05T11:10:35;18.10;;;3.58;;
72261;SDS011;60173;52.112;8.648;2023-01-05T11:13:29;20.30;;;4.00;;
72261;SDS011;60173;52.112;8.648;2023-01-05T11:15:59;26.58;;;4.93;;
72261;SDS011;60173;52.112;8.648;2023-01-05T11:18:33;20.85;;;4.57;;
72261;SDS011;60173;52.112;8.648;2023-01-05T11:21:03;22.67;;;4.22;;
72261;SDS011;60173;52.112;8.648;2023-01-05T11:23:35;21.60;;;4.22;;
72261;SDS011;60173;52.112;8.648;2023-01-05T11:29:09;17.30;;;3.65;;
72261;SDS011;60173;52.112;8.648;2023-01-05T11:31:56;13.02;;;4.07;;
72261;SDS011;60173;52.112;8.648;2023-01-05T11:34:42;18.65;;;3.92;;
72261;SDS011;60173;52.112;8.648;2023-01-05T11:42:10;17.45;;;3.95;;
72261;SDS011;60173;52.112;8.648;2023-01-05T11:44:52;17.55;;;3.70;;
72261;SDS011;60173;52.112;8.648;2023-01-05T11:47:37;18.30;;;3.67;;
72261;SDS011;60173;52.112;8.648;2023-01-05T11:52:40;18.25;;;4.35;;
72261;SDS011;60173;52.112;8.648;2023-01-05T11:58:19;20.88;;;4.10;;
72261;SDS011;60173;52.112;8.648;2023-01-05T12:08:54;16.10;;;3.80;;
72261;SDS011;60173;52.112;8.648;2023-01-05T12:11:29;19.55;;;4.13;;
72261;SDS011;60173;52.112;8.648;2023-01-05T12:14:14;17.38;;;4.25;;
72261;SDS011;60173;52.112;8.648;2023-01-05T12:16:54;17.05;;;4.50;;
72261;SDS011;60173;52.112;8.648;2023-01-05T12:28:12;15.40;;;3.78;;
72261;SDS011;60173;52.112;8.648;2023-01-05T12:31:15;16.55;;;3.63;;
72261;SDS011;60173;52.112;8.648;2023-01-05T12:40:16;22.85;;;4.00;;
72261;SDS011;60173;52.112;8.648;2023-01-05T12:43:02;18.92;;;4.55;;
72261;SDS011;60173;52.112;8.648;2023-01-05T12:45:46;13.82;;;3.30;;
72261;SDS011;60173;52.112;8.648;2023-01-05T12:48:30;18.65;;;3.65;;
72261;SDS011;60173;52.112;8.648;2023-01-05T12:53:52;17.02;;;4.10;;
72261;SDS011;60173;52.112;8.648;2023-01-05T12:59:16;18.10;;;3.67;;
72261;SDS011;60173;52.112;8.648;2023-01-05T13:02:00;13.85;;;3.20;;
72261;SDS011;60173;52.112;8.648;2023-01-05T13:04:51;10.73;;;2.38;;
72261;SDS011;60173;52.112;8.648;2023-01-05T13:07:25;11.45;;;2.80;;
72261;SDS011;60173;52.112;8.648;2023-01-05T13:10:16;15.48;;;3.53;;
72261;SDS011;60173;52.112;8.648;2023-01-05T13:13:13;10.55;;;2.95;;
72261;SDS011;60173;52.112;8.648;2023-01-05T13:18:20;19.05;;;4.25;;
72261;SDS011;60173;52.112;8.648;2023-01-05T13:20:54;16.38;;;4.32;;
72261;SDS011;60173;52.112;8.648;2023-01-05T13:23:31;17.98;;;4.32;;
72261;SDS011;60173;52.112;8.648;2023-01-05T13:26:06;17.58;;;3.75;;
72261;SDS011;60173;52.112;8.648;2023-01-05T13:31:06;15.93;;;3.67;;
72261;SDS011;60173;52.112;8.648;2023-01-05T13:36:48;18.13;;;4.37;;
72261;SDS011;60173;52.112;8.648;2023-01-05T13:42:05;16.70;;;4.78;;
72261;SDS011;60173;52.112;8.648;2023-01-05T13:45:04;16.02;;;3.80;;
72261;SDS011;60173;52.112;8.648;2023-01-05T13:53:23;17.65;;;5.22;;
72261;SDS011;60173;52.112;8.648;2023-01-05T13:56:03;21.02;;;5.50;;
72261;SDS011;60173;52.112;8.648;2023-01-05T13:58:42;20.77;;;4.95;;
72261;SDS011;60173;52.112;8.648;2023-01-05T14:01:12;15.07;;;4.75;;
72261;SDS011;60173;52.112;8.648;2023-01-05T14:03:46;15.88;;;5.45;;
72261;SDS011;60173;52.112;8.648;2023-01-05T14:11:30;20.15;;;5.65;;
72261;SDS011;60173;52.112;8.648;2023-01-05T14:13:58;17.88;;;5.25;;
72261;SDS011;60173;52.112;8.648;2023-01-05T14:24:29;20.98;;;5.05;;
72261;SDS011;60173;52.112;8.648;2023-01-05T14:35:20;21.70;;;5.13;;
72261;SDS011;60173;52.112;8.648;2023-01-05T14:37:57;30.10;;;5.97;;
72261;SDS011;60173;52.112;8.648;2023-01-05T14:40:30;22.23;;;5.97;;
72261;SDS011;60173;52.112;8.648;2023-01-05T14:43:01;27.15;;;6.55;;
72261;SDS011;60173;52.112;8.648;2023-01-05T14:45:31;27.63;;;5.97;;
72261;SDS011;60173;52.112;8.648;2023-01-05T14:48:01;19.45;;;5.82;;
72261;SDS011;60173;52.112;8.648;2023-01-05T14:53:00;26.77;;;5.63;;
72261;SDS011;60173;52.112;8.648;2023-01-05T14:55:30;30.48;;;6.85;;
72261;SDS011;60173;52.112;8.648;2023-01-05T14:58:09;30.10;;;6.35;;
72261;SDS011;60173;52.112;8.648;2023-01-05T15:06:29;34.75;;;6.88;;
72261;SDS011;60173;52.112;8.648;2023-01-05T15:12:19;24.83;;;5.82;;
72261;SDS011;60173;52.112;8.648;2023-01-05T15:18:12;26.13;;;5.72;;
72261;SDS011;60173;52.112;8.648;2023-01-05T15:31:51;24.73;;;5.90;;
72261;SDS011;60173;52.112;8.648;2023-01-05T15:37:14;27.25;;;6.13;;
72261;SDS011;60173;52.112;8.648;2023-01-05T15:39:46;26.83;;;5.85;;
72261;SDS011;60173;52.112;8.648;2023-01-05T15:42:19;30.15;;;6.15;;
72261;SDS011;60173;52.112;8.648;2023-01-05T15:44:49;32.13;;;6.63;;
72261;SDS011;60173;52.112;8.648;2023-01-05T15:47:18;25.38;;;6.00;;
72261;SDS011;60173;52.112;8.648;2023-01-05T15:49:47;28.02;;;5.80;;
72261;SDS011;60173;52.112;8.648;2023-01-05T15:52:36;28.45;;;6.10;;
72261;SDS011;60173;52.112;8.648;2023-01-05T15:55:10;30.08;;;6.55;;
72261;SDS011;60173;52.112;8.648;2023-01-05T15:57:36;30.33;;;6.00;;
72261;SDS011;60173;52.112;8.648;2023-01-05T16:00:16;31.50;;;5.57;;
72261;SDS011;60173;52.112;8.648;2023-01-05T16:02:43;25.90;;;5.72;;
72261;SDS011;60173;52.112;8.648;2023-01-05T16:05:11;28.40;;;6.00;;
72261;SDS011;60173;52.112;8.648;2023-01-05T16:07:56;27.83;;;6.10;;
72261;SDS011;60173;52.112;8.648;2023-01-05T16:13:24;26.00;;;6.13;;
72261;SDS011;60173;52.112;8.648;2023-01-05T16:16:12;28.63;;;6.97;;
72261;SDS011;60173;52.112;8.648;2023-01-05T16:19:06;35.67;;;6.57;;
72261;SDS011;60173;52.112;8.648;2023-01-05T16:22:11;30.20;;;6.03;;
72261;SDS011;60173;52.112;8.648;2023-01-05T16:27:09;28.73;;;6.07;;
72261;SDS011;60173;52.112;8.648;2023-01-05T16:29:38;25.58;;;6.47;;
72261;SDS011;60173;52.112;8.648;2023-01-05T16:35:17;34.58;;;6.30;;
72261;SDS011;60173;52.112;8.648;2023-01-05T16:38:02;35.85;;;6.40;;
72261;SDS011;60173;52.112;8.648;2023-01-05T16:40:29;25.98;;;5.30;;
72261;SDS011;60173;52.112;8.648;2023-01-05T16:42:56;26.73;;;5.75;;
72261;SDS011;60173;52.112;8.648;2023-01-05T16:45:24;25.73;;;6.93;;
72261;SDS011;60173;52.112;8.648;2023-01-05T16:47:56;24.05;;;6.40;;
72261;SDS011;60173;52.112;8.648;2023-01-05T16:53:03;31.77;;;7.70;;
72261;SDS011;60173;52.112;8.648;2023-01-05T16:55:35;33.53;;;6.95;;
72261;SDS011;60173;52.112;8.648;2023-01-05T16:58:03;30.88;;;7.88;;
72261;SDS011;60173;52.112;8.648;2023-01-05T17:00:50;40.45;;;10.32;;
72261;SDS011;60173;52.112;8.648;2023-01-05T17:03:24;29.20;;;7.47;;
72261;SDS011;60173;52.112;8.648;2023-01-05T17:05:54;34.00;;;8.18;;
72261;SDS011;60173;52.112;8.648;2023-01-05T17:08:22;38.53;;;8.93;;
72261;SDS011;60173;52.112;8.648;2023-01-05T17:10:50;31.38;;;7.70;;
72261;SDS011;60173;52.112;8.648;2023-01-05T17:13:18;30.58;;;7.57;;
72261;SDS011;60173;52.112;8.648;2023-01-05T17:15:48;27.98;;;7.30;;
72261;SDS011;60173;52.112;8.648;2023-01-05T17:18:16;29.02;;;6.55;;
72261;SDS011;60173;52.112;8.648;2023-01-05T17:20:44;30.23;;;6.80;;
72261;SDS011;60173;52.112;8.648;2023-01-05T17:23:18;26.65;;;6.72;;
72261;SDS011;60173;52.112;8.648;2023-01-05T17:25:45;27.83;;;6.35;;